sensor_id;sensor_type;location;lat;lon;timestamp;temperature;humidity
46139;DHT22;32398;49.112;8.598;2022-09-09T00:01:47;18.90;72.40
46139;DHT22;32398;49.112;8.598;2022-09-09T00:04:19;18.90;72.50
46139;DHT22;32398;49.112;8.598;2022-09-09T00:06:50;18.90;72.50
46139;DHT22;32398;49.112;8.598;2022-09-09T00:09:24;18.90;72.50
46139;DHT22;32398;49.112;8.598;2022-09-09T00:11:52;18.90;72.50
46139;DHT22;32398;49.112;8.598;2022-09-09T00:14:21;18.80;72.70
46139;DHT22;32398;49.112;8.598;2022-09-09T00:16:50;18.80;72.70
46139;DHT22;32398;49.112;8.598;2022-09-09T00:19:20;18.80;72.80
46139;DHT22;32398;49.112;8.598;2022-09-09T00:21:49;18.80;72.80
46139;DHT22;32398;49.112;8.598;2022-09-09T00:24:23;18.80;72.80
46139;DHT22;32398;49.112;8.598;2022-09-09T00:26:52;18.70;72.90
46139;DHT22;32398;49.112;8.598;2022-09-09T00:29:21;18.70;72.90
46139;DHT22;32398;49.112;8.598;2022-09-09T00:31:50;18.70;73.00
46139;DHT22;32398;49.112;8.598;2022-09-09T00:34:21;18.70;73.00
46139;DHT22;32398;49.112;8.598;2022-09-09T00:36:49;18.70;73.10
46139;DHT22;32398;49.112;8.598;2022-09-09T00:39:19;18.70;73.10
46139;DHT22;32398;49.112;8.598;2022-09-09T00:41:49;18.70;73.20
46139;DHT22;32398;49.112;8.598;2022-09-09T00:44:28;18.70;73.20
46139;DHT22;32398;49.112;8.598;2022-09-09T00:46:59;18.60;73.00
46139;DHT22;32398;49.112;8.598;2022-09-09T00:49:34;18.60;73.20
46139;DHT22;32398;49.112;8.598;2022-09-09T00:52:06;18.60;73.30
46139;DHT22;32398;49.112;8.598;2022-09-09T00:54:38;18.60;73.30
46139;DHT22;32398;49.112;8.598;2022-09-09T00:57:11;18.60;73.30
46139;DHT22;32398;49.112;8.598;2022-09-09T00:59:42;18.60;73.10
46139;DHT22;32398;49.112;8.598;2022-09-09T01:02:21;18.60;73.20
46139;DHT22;32398;49.112;8.598;2022-09-09T01:04:51;18.50;73.20
46139;DHT22;32398;49.112;8.598;2022-09-09T01:07:20;18.50;73.20
46139;DHT22;32398;49.112;8.598;2022-09-09T01:09:54;18.50;73.30
46139;DHT22;32398;49.112;8.598;2022-09-09T01:12:25;18.50;73.20
46139;DHT22;32398;49.112;8.598;2022-09-09T01:14:55;18.50;73.10
46139;DHT22;32398;49.112;8.598;2022-09-09T01:17:23;18.50;73.00
46139;DHT22;32398;49.112;8.598;2022-09-09T01:19:55;18.40;72.90
46139;DHT22;32398;49.112;8.598;2022-09-09T01:22:26;18.50;73.00
46139;DHT22;32398;49.112;8.598;2022-09-09T01:25:07;18.40;72.80
46139;DHT22;32398;49.112;8.598;2022-09-09T01:27:39;18.40;72.70
46139;DHT22;32398;49.112;8.598;2022-09-09T01:30:08;18.40;72.80
46139;DHT22;32398;49.112;8.598;2022-09-09T01:32:37;18.40;72.70
46139;DHT22;32398;49.112;8.598;2022-09-09T01:35:05;18.40;72.80
46139;DHT22;32398;49.112;8.598;2022-09-09T01:37:33;18.40;72.70
46139;DHT22;32398;49.112;8.598;2022-09-09T01:40:00;18.40;72.80
46139;DHT22;32398;49.112;8.598;2022-09-09T01:42:26;18.40;72.80
46139;DHT22;32398;49.112;8.598;2022-09-09T01:44:56;18.40;72.70
46139;DHT22;32398;49.112;8.598;2022-09-09T01:47:23;18.40;72.80
46139;DHT22;32398;49.112;8.598;2022-09-09T01:49:50;18.40;72.70
46139;DHT22;32398;49.112;8.598;2022-09-09T01:52:17;18.40;72.80
46139;DHT22;32398;49.112;8.598;2022-09-09T01:54:43;18.40;72.40
46139;DHT22;32398;49.112;8.598;2022-09-09T01:57:11;18.30;72.50
46139;DHT22;32398;49.112;8.598;2022-09-09T01:59:45;18.30;72.70
46139;DHT22;32398;49.112;8.598;2022-09-09T02:02:16;18.30;72.80
46139;DHT22;32398;49.112;8.598;2022-09-09T02:04:44;18.30;72.80
46139;DHT22;32398;49.112;8.598;2022-09-09T02:07:15;18.30;72.80
46139;DHT22;32398;49.112;8.598;2022-09-09T02:09:47;18.30;73.00
46139;DHT22;32398;49.112;8.598;2022-09-09T02:12:16;18.30;73.40
46139;DHT22;32398;49.112;8.598;2022-09-09T02:14:47;18.30;73.80
46139;DHT22;32398;49.112;8.598;2022-09-09T02:17:18;18.30;73.90
46139;DHT22;32398;49.112;8.598;2022-09-09T02:19:48;18.30;74.00
46139;DHT22;32398;49.112;8.598;2022-09-09T02:22:15;18.30;74.20
46139;DHT22;32398;49.112;8.598;2022-09-09T02:24:43;18.20;74.30
46139;DHT22;32398;49.112;8.598;2022-09-09T02:27:11;18.20;74.40
46139;DHT22;32398;49.112;8.598;2022-09-09T02:29:40;18.20;74.60
46139;DHT22;32398;49.112;8.598;2022-09-09T02:32:08;18.20;74.80
46139;DHT22;32398;49.112;8.598;2022-09-09T02:34:39;18.20;74.70
46139;DHT22;32398;49.112;8.598;2022-09-09T02:37:06;18.20;74.80
46139;DHT22;32398;49.112;8.598;2022-09-09T02:39:34;18.20;74.70
46139;DHT22;32398;49.112;8.598;2022-09-09T02:42:01;18.20;74.80
46139;DHT22;32398;49.112;8.598;2022-09-09T02:44:29;18.20;74.80
46139;DHT22;32398;49.112;8.598;2022-09-09T02:46:59;18.10;74.90
46139;DHT22;32398;49.112;8.598;2022-09-09T02:49:31;18.10;74.80
46139;DHT22;32398;49.112;8.598;2022-09-09T02:52:04;18.10;74.80
46139;DHT22;32398;49.112;8.598;2022-09-09T02:54:32;18.10;74.80
46139;DHT22;32398;49.112;8.598;2022-09-09T02:57:00;18.00;74.70
46139;DHT22;32398;49.112;8.598;2022-09-09T02:59:28;18.00;74.80
46139;DHT22;32398;49.112;8.598;2022-09-09T03:01:55;18.10;75.70
46139;DHT22;32398;49.112;8.598;2022-09-09T03:04:22;18.00;74.80
46139;DHT22;32398;49.112;8.598;2022-09-09T03:06:49;18.00;74.80
46139;DHT22;32398;49.112;8.598;2022-09-09T03:09:17;18.00;74.90
46139;DHT22;32398;49.112;8.598;2022-09-09T03:11:44;18.00;75.00
46139;DHT22;32398;49.112;8.598;2022-09-09T03:14:10;18.00;75.10
46139;DHT22;32398;49.112;8.598;2022-09-09T03:16:37;18.00;75.00
46139;DHT22;32398;49.112;8.598;2022-09-09T03:19:03;18.00;75.00
46139;DHT22;32398;49.112;8.598;2022-09-09T03:21:31;18.00;74.90
46139;DHT22;32398;49.112;8.598;2022-09-09T03:23:58;18.00;74.90
46139;DHT22;32398;49.112;8.598;2022-09-09T03:26:26;17.90;74.80
46139;DHT22;32398;49.112;8.598;2022-09-09T03:28:52;17.90;74.70
46139;DHT22;32398;49.112;8.598;2022-09-09T03:31:19;17.90;74.70
46139;DHT22;32398;49.112;8.598;2022-09-09T03:33:46;17.90;74.60
46139;DHT22;32398;49.112;8.598;2022-09-09T03:36:13;17.90;74.70
46139;DHT22;32398;49.112;8.598;2022-09-09T03:38:40;17.90;74.40
46139;DHT22;32398;49.112;8.598;2022-09-09T03:41:06;17.90;74.40
46139;DHT22;32398;49.112;8.598;2022-09-09T03:43:34;17.90;74.30
46139;DHT22;32398;49.112;8.598;2022-09-09T03:46:02;17.90;74.30
46139;DHT22;32398;49.112;8.598;2022-09-09T03:48:29;17.80;74.20
46139;DHT22;32398;49.112;8.598;2022-09-09T03:50:56;17.90;74.40
46139;DHT22;32398;49.112;8.598;2022-09-09T03:53:25;17.90;74.40
46139;DHT22;32398;49.112;8.598;2022-09-09T03:55:52;17.80;74.30
46139;DHT22;32398;49.112;8.598;2022-09-09T03:58:19;17.80;74.20
46139;DHT22;32398;49.112;8.598;2022-09-09T04:00:53;17.80;74.20
46139;DHT22;32398;49.112;8.598;2022-09-09T04:03:20;17.80;74.10
46139;DHT22;32398;49.112;8.598;2022-09-09T04:05:48;17.80;74.10
46139;DHT22;32398;49.112;8.598;2022-09-09T04:08:14;17.80;74.20
46139;DHT22;32398;49.112;8.598;2022-09-09T04:10:41;17.80;74.10
46139;DHT22;32398;49.112;8.598;2022-09-09T04:13:07;17.80;74.10
46139;DHT22;32398;49.112;8.598;2022-09-09T04:15:34;17.80;73.80
46139;DHT22;32398;49.112;8.598;2022-09-09T04:18:03;17.80;73.70
46139;DHT22;32398;49.112;8.598;2022-09-09T04:20:30;17.80;73.80
46139;DHT22;32398;49.112;8.598;2022-09-09T04:22:56;17.80;73.80
46139;DHT22;32398;49.112;8.598;2022-09-09T04:25:23;17.70;73.80
46139;DHT22;32398;49.112;8.598;2022-09-09T04:27:52;17.80;73.90
46139;DHT22;32398;49.112;8.598;2022-09-09T04:30:20;17.80;73.80
46139;DHT22;32398;49.112;8.598;2022-09-09T04:32:46;17.70;73.60
46139;DHT22;32398;49.112;8.598;2022-09-09T04:35:14;17.70;73.70
46139;DHT22;32398;49.112;8.598;2022-09-09T04:37:41;17.70;73.80
46139;DHT22;32398;49.112;8.598;2022-09-09T04:40:08;17.70;73.60
46139;DHT22;32398;49.112;8.598;2022-09-09T04:42:35;17.70;73.70
46139;DHT22;32398;49.112;8.598;2022-09-09T04:45:01;17.70;73.70
46139;DHT22;32398;49.112;8.598;2022-09-09T04:47:28;17.70;73.70
46139;DHT22;32398;49.112;8.598;2022-09-09T04:49:54;17.70;73.70
46139;DHT22;32398;49.112;8.598;2022-09-09T04:52:23;17.70;73.60
46139;DHT22;32398;49.112;8.598;2022-09-09T04:54:49;17.60;73.40
46139;DHT22;32398;49.112;8.598;2022-09-09T04:57:16;17.70;73.20
46139;DHT22;32398;49.112;8.598;2022-09-09T04:59:42;17.70;73.20
46139;DHT22;32398;49.112;8.598;2022-09-09T05:02:11;17.70;73.20
46139;DHT22;32398;49.112;8.598;2022-09-09T05:04:37;17.70;73.30
46139;DHT22;32398;49.112;8.598;2022-09-09T05:07:04;17.70;73.30
46139;DHT22;32398;49.112;8.598;2022-09-09T05:09:33;17.70;73.30
46139;DHT22;32398;49.112;8.598;2022-09-09T05:11:59;17.60;73.10
46139;DHT22;32398;49.112;8.598;2022-09-09T05:14:26;17.70;73.20
46139;DHT22;32398;49.112;8.598;2022-09-09T05:16:52;17.70;73.20
46139;DHT22;32398;49.112;8.598;2022-09-09T05:19:19;17.60;73.20
46139;DHT22;32398;49.112;8.598;2022-09-09T05:21:46;17.70;72.50
46139;DHT22;32398;49.112;8.598;2022-09-09T05:24:12;17.60;72.60
46139;DHT22;32398;49.112;8.598;2022-09-09T05:26:40;17.60;72.70
46139;DHT22;32398;49.112;8.598;2022-09-09T05:29:06;17.60;72.80
46139;DHT22;32398;49.112;8.598;2022-09-09T05:31:33;17.60;72.60
46139;DHT22;32398;49.112;8.598;2022-09-09T05:34:00;17.60;72.50
46139;DHT22;32398;49.112;8.598;2022-09-09T05:36:26;17.70;72.70
46139;DHT22;32398;49.112;8.598;2022-09-09T05:38:53;17.70;72.70
46139;DHT22;32398;49.112;8.598;2022-09-09T05:41:19;17.70;72.60
46139;DHT22;32398;49.112;8.598;2022-09-09T05:43:49;17.60;72.50
46139;DHT22;32398;49.112;8.598;2022-09-09T05:46:17;17.60;72.40
46139;DHT22;32398;49.112;8.598;2022-09-09T05:48:44;17.60;72.60
46139;DHT22;32398;49.112;8.598;2022-09-09T05:51:12;17.60;72.40
46139;DHT22;32398;49.112;8.598;2022-09-09T05:53:41;17.70;72.40
46139;DHT22;32398;49.112;8.598;2022-09-09T05:56:08;17.60;72.20
46139;DHT22;32398;49.112;8.598;2022-09-09T05:58:36;17.60;72.20
46139;DHT22;32398;49.112;8.598;2022-09-09T06:01:05;17.60;72.20
46139;DHT22;32398;49.112;8.598;2022-09-09T06:03:33;17.60;72.10
46139;DHT22;32398;49.112;8.598;2022-09-09T06:06:00;17.60;72.30
46139;DHT22;32398;49.112;8.598;2022-09-09T06:08:27;17.70;72.40
46139;DHT22;32398;49.112;8.598;2022-09-09T06:11:00;17.70;72.30
46139;DHT22;32398;49.112;8.598;2022-09-09T06:13:27;17.60;72.30
46139;DHT22;32398;49.112;8.598;2022-09-09T06:15:53;17.60;72.20
46139;DHT22;32398;49.112;8.598;2022-09-09T06:18:22;17.70;72.30
46139;DHT22;32398;49.112;8.598;2022-09-09T06:20:55;17.70;72.40
46139;DHT22;32398;49.112;8.598;2022-09-09T06:23:22;17.70;72.30
46139;DHT22;32398;49.112;8.598;2022-09-09T06:25:48;17.60;72.30
46139;DHT22;32398;49.112;8.598;2022-09-09T06:28:16;17.60;72.10
46139;DHT22;32398;49.112;8.598;2022-09-09T06:30:43;17.70;72.10
46139;DHT22;32398;49.112;8.598;2022-09-09T06:33:09;17.60;72.10
46139;DHT22;32398;49.112;8.598;2022-09-09T06:35:37;17.70;72.20
46139;DHT22;32398;49.112;8.598;2022-09-09T06:38:04;17.70;72.20
46139;DHT22;32398;49.112;8.598;2022-09-09T06:40:31;17.70;72.20
46139;DHT22;32398;49.112;8.598;2022-09-09T06:42:59;17.70;72.30
46139;DHT22;32398;49.112;8.598;2022-09-09T06:45:25;17.70;72.20
46139;DHT22;32398;49.112;8.598;2022-09-09T06:47:54;17.70;72.30
46139;DHT22;32398;49.112;8.598;2022-09-09T06:50:20;17.70;72.40
46139;DHT22;32398;49.112;8.598;2022-09-09T06:52:48;17.80;72.50
46139;DHT22;32398;49.112;8.598;2022-09-09T06:55:15;17.80;72.50
46139;DHT22;32398;49.112;8.598;2022-09-09T06:57:43;17.80;72.60
46139;DHT22;32398;49.112;8.598;2022-09-09T07:00:10;17.80;72.50
46139;DHT22;32398;49.112;8.598;2022-09-09T07:02:37;17.80;72.50
46139;DHT22;32398;49.112;8.598;2022-09-09T07:05:05;17.80;72.50
46139;DHT22;32398;49.112;8.598;2022-09-09T07:07:33;17.80;72.60
46139;DHT22;32398;49.112;8.598;2022-09-09T07:10:01;17.80;72.50
46139;DHT22;32398;49.112;8.598;2022-09-09T07:12:28;17.80;72.50
46139;DHT22;32398;49.112;8.598;2022-09-09T07:14:55;17.80;72.60
46139;DHT22;32398;49.112;8.598;2022-09-09T07:17:21;17.80;72.50
46139;DHT22;32398;49.112;8.598;2022-09-09T07:19:48;17.90;72.70
46139;DHT22;32398;49.112;8.598;2022-09-09T07:22:15;17.90;72.60
46139;DHT22;32398;49.112;8.598;2022-09-09T07:24:41;17.90;72.50
46139;DHT22;32398;49.112;8.598;2022-09-09T07:27:11;17.90;72.40
46139;DHT22;32398;49.112;8.598;2022-09-09T07:29:38;17.90;72.50
46139;DHT22;32398;49.112;8.598;2022-09-09T07:32:04;18.00;72.70
46139;DHT22;32398;49.112;8.598;2022-09-09T07:34:31;18.00;74.00
46139;DHT22;32398;49.112;8.598;2022-09-09T07:36:57;18.10;73.60
46139;DHT22;32398;49.112;8.598;2022-09-09T07:39:24;18.10;73.40
46139;DHT22;32398;49.112;8.598;2022-09-09T07:41:51;18.20;73.30
46139;DHT22;32398;49.112;8.598;2022-09-09T07:44:21;18.10;73.20
46139;DHT22;32398;49.112;8.598;2022-09-09T07:46:48;18.10;73.00
46139;DHT22;32398;49.112;8.598;2022-09-09T07:49:15;18.10;73.00
46139;DHT22;32398;49.112;8.598;2022-09-09T07:51:43;18.10;73.10
46139;DHT22;32398;49.112;8.598;2022-09-09T07:54:11;18.10;73.10
46139;DHT22;32398;49.112;8.598;2022-09-09T07:56:38;18.10;73.20
46139;DHT22;32398;49.112;8.598;2022-09-09T07:59:04;18.10;73.40
46139;DHT22;32398;49.112;8.598;2022-09-09T08:01:34;18.20;73.70
46139;DHT22;32398;49.112;8.598;2022-09-09T08:04:05;18.20;73.70
46139;DHT22;32398;49.112;8.598;2022-09-09T08:06:33;18.10;73.80
46139;DHT22;32398;49.112;8.598;2022-09-09T08:09:01;18.20;73.80
46139;DHT22;32398;49.112;8.598;2022-09-09T08:11:28;18.20;73.80
46139;DHT22;32398;49.112;8.598;2022-09-09T08:13:55;18.20;73.80
46139;DHT22;32398;49.112;8.598;2022-09-09T08:16:22;18.20;73.80
46139;DHT22;32398;49.112;8.598;2022-09-09T08:18:50;18.20;73.80
46139;DHT22;32398;49.112;8.598;2022-09-09T08:21:18;18.20;73.70
46139;DHT22;32398;49.112;8.598;2022-09-09T08:23:45;18.20;73.80
46139;DHT22;32398;49.112;8.598;2022-09-09T08:26:13;18.30;73.90
46139;DHT22;32398;49.112;8.598;2022-09-09T08:28:40;18.30;74.00
46139;DHT22;32398;49.112;8.598;2022-09-09T08:31:07;18.30;74.10
46139;DHT22;32398;49.112;8.598;2022-09-09T08:33:34;18.40;74.30
46139;DHT22;32398;49.112;8.598;2022-09-09T08:36:04;18.40;74.20
46139;DHT22;32398;49.112;8.598;2022-09-09T08:38:30;18.50;74.20
46139;DHT22;32398;49.112;8.598;2022-09-09T08:40:58;18.50;74.00
46139;DHT22;32398;49.112;8.598;2022-09-09T08:43:29;18.50;74.40
46139;DHT22;32398;49.112;8.598;2022-09-09T08:45:58;18.70;75.00
46139;DHT22;32398;49.112;8.598;2022-09-09T08:48:34;18.80;75.10
46139;DHT22;32398;49.112;8.598;2022-09-09T08:51:05;18.80;74.90
46139;DHT22;32398;49.112;8.598;2022-09-09T08:53:35;18.80;74.60
46139;DHT22;32398;49.112;8.598;2022-09-09T08:56:07;18.80;74.60
46139;DHT22;32398;49.112;8.598;2022-09-09T08:58:35;18.90;74.80
46139;DHT22;32398;49.112;8.598;2022-09-09T09:01:12;18.80;74.50
46139;DHT22;32398;49.112;8.598;2022-09-09T09:03:47;18.80;74.50
46139;DHT22;32398;49.112;8.598;2022-09-09T09:06:21;18.90;74.60
46139;DHT22;32398;49.112;8.598;2022-09-09T09:08:51;18.90;74.50
46139;DHT22;32398;49.112;8.598;2022-09-09T09:11:21;19.00;74.30
46139;DHT22;32398;49.112;8.598;2022-09-09T09:13:50;19.00;74.20
46139;DHT22;32398;49.112;8.598;2022-09-09T09:16:21;19.00;74.00
46139;DHT22;32398;49.112;8.598;2022-09-09T09:18:48;19.00;73.80
46139;DHT22;32398;49.112;8.598;2022-09-09T09:21:17;19.10;73.50
46139;DHT22;32398;49.112;8.598;2022-09-09T09:23:48;19.10;73.30
46139;DHT22;32398;49.112;8.598;2022-09-09T09:26:18;19.20;73.00
46139;DHT22;32398;49.112;8.598;2022-09-09T09:28:45;19.20;72.80
46139;DHT22;32398;49.112;8.598;2022-09-09T09:31:12;19.30;72.40
46139;DHT22;32398;49.112;8.598;2022-09-09T09:33:42;19.30;72.20
46139;DHT22;32398;49.112;8.598;2022-09-09T09:36:12;19.30;72.10
46139;DHT22;32398;49.112;8.598;2022-09-09T09:38:50;19.30;72.00
46139;DHT22;32398;49.112;8.598;2022-09-09T09:41:18;19.30;71.90
46139;DHT22;32398;49.112;8.598;2022-09-09T09:43:55;19.30;71.70
46139;DHT22;32398;49.112;8.598;2022-09-09T09:46:22;19.40;71.70
46139;DHT22;32398;49.112;8.598;2022-09-09T09:48:56;19.40;71.60
46139;DHT22;32398;49.112;8.598;2022-09-09T09:51:22;19.40;71.30
46139;DHT22;32398;49.112;8.598;2022-09-09T09:53:49;19.40;71.20
46139;DHT22;32398;49.112;8.598;2022-09-09T09:56:25;19.40;71.10
46139;DHT22;32398;49.112;8.598;2022-09-09T09:58:52;19.40;70.90
46139;DHT22;32398;49.112;8.598;2022-09-09T10:01:20;19.50;70.70
46139;DHT22;32398;49.112;8.598;2022-09-09T10:03:50;19.50;70.40
46139;DHT22;32398;49.112;8.598;2022-09-09T10:06:16;19.50;70.10
46139;DHT22;32398;49.112;8.598;2022-09-09T10:08:44;19.60;69.90
46139;DHT22;32398;49.112;8.598;2022-09-09T10:11:25;19.60;69.40
46139;DHT22;32398;49.112;8.598;2022-09-09T10:13:55;19.70;69.10
46139;DHT22;32398;49.112;8.598;2022-09-09T10:16:26;19.80;68.30
46139;DHT22;32398;49.112;8.598;2022-09-09T10:18:58;19.80;67.70
46139;DHT22;32398;49.112;8.598;2022-09-09T10:21:29;19.90;67.30
46139;DHT22;32398;49.112;8.598;2022-09-09T10:24:08;20.00;67.00
46139;DHT22;32398;49.112;8.598;2022-09-09T10:26:42;20.00;66.70
46139;DHT22;32398;49.112;8.598;2022-09-09T10:32:06;20.20;66.00
46139;DHT22;32398;49.112;8.598;2022-09-09T10:34:39;20.30;65.70
46139;DHT22;32398;49.112;8.598;2022-09-09T10:37:13;20.30;65.70
46139;DHT22;32398;49.112;8.598;2022-09-09T10:39:44;20.40;65.40
46139;DHT22;32398;49.112;8.598;2022-09-09T10:42:12;20.50;65.50
46139;DHT22;32398;49.112;8.598;2022-09-09T10:44:43;20.50;65.50
46139;DHT22;32398;49.112;8.598;2022-09-09T10:50:02;20.60;64.40
46139;DHT22;32398;49.112;8.598;2022-09-09T10:52:32;20.60;64.30
46139;DHT22;32398;49.112;8.598;2022-09-09T10:55:02;20.70;64.20
46139;DHT22;32398;49.112;8.598;2022-09-09T10:57:35;20.80;63.90
46139;DHT22;32398;49.112;8.598;2022-09-09T11:00:04;20.80;63.70
46139;DHT22;32398;49.112;8.598;2022-09-09T11:02:31;20.90;63.70
46139;DHT22;32398;49.112;8.598;2022-09-09T11:05:00;20.90;63.40
46139;DHT22;32398;49.112;8.598;2022-09-09T11:07:29;20.90;62.90
46139;DHT22;32398;49.112;8.598;2022-09-09T11:09:59;20.80;63.10
46139;DHT22;32398;49.112;8.598;2022-09-09T11:12:27;20.90;63.00
46139;DHT22;32398;49.112;8.598;2022-09-09T11:14:57;20.90;62.60
46139;DHT22;32398;49.112;8.598;2022-09-09T11:17:26;20.90;62.40
46139;DHT22;32398;49.112;8.598;2022-09-09T11:19:55;20.90;62.10
46139;DHT22;32398;49.112;8.598;2022-09-09T11:22:23;21.00;62.30
46139;DHT22;32398;49.112;8.598;2022-09-09T11:24:55;21.00;62.50
46139;DHT22;32398;49.112;8.598;2022-09-09T11:27:24;21.10;61.90
46139;DHT22;32398;49.112;8.598;2022-09-09T11:30:02;21.10;61.60
46139;DHT22;32398;49.112;8.598;2022-09-09T11:32:44;21.20;62.00
46139;DHT22;32398;49.112;8.598;2022-09-09T11:35:20;21.30;61.20
46139;DHT22;32398;49.112;8.598;2022-09-09T11:38:03;21.30;60.90
46139;DHT22;32398;49.112;8.598;2022-09-09T11:40:35;21.40;60.60
46139;DHT22;32398;49.112;8.598;2022-09-09T11:43:02;21.50;60.60
46139;DHT22;32398;49.112;8.598;2022-09-09T11:45:31;21.60;60.40
46139;DHT22;32398;49.112;8.598;2022-09-09T11:48:00;21.60;59.90
46139;DHT22;32398;49.112;8.598;2022-09-09T11:50:28;21.60;59.90
46139;DHT22;32398;49.112;8.598;2022-09-09T11:53:03;21.70;60.40
46139;DHT22;32398;49.112;8.598;2022-09-09T11:55:31;21.80;59.70
46139;DHT22;32398;49.112;8.598;2022-09-09T11:57:58;21.80;59.80
46139;DHT22;32398;49.112;8.598;2022-09-09T12:00:34;21.80;59.60
46139;DHT22;32398;49.112;8.598;2022-09-09T12:03:02;21.90;59.70
46139;DHT22;32398;49.112;8.598;2022-09-09T12:05:35;22.00;60.20
46139;DHT22;32398;49.112;8.598;2022-09-09T12:08:03;22.00;59.90
46139;DHT22;32398;49.112;8.598;2022-09-09T12:10:30;22.10;59.30
46139;DHT22;32398;49.112;8.598;2022-09-09T12:13:07;22.10;59.00
46139;DHT22;32398;49.112;8.598;2022-09-09T12:15:36;22.20;58.70
46139;DHT22;32398;49.112;8.598;2022-09-09T12:18:14;22.20;59.30
46139;DHT22;32398;49.112;8.598;2022-09-09T12:20:41;22.30;58.70
46139;DHT22;32398;49.112;8.598;2022-09-09T12:23:22;22.30;58.20
46139;DHT22;32398;49.112;8.598;2022-09-09T12:25:57;22.30;58.20
46139;DHT22;32398;49.112;8.598;2022-09-09T12:28:27;22.40;58.00
46139;DHT22;32398;49.112;8.598;2022-09-09T12:31:01;22.40;57.70
46139;DHT22;32398;49.112;8.598;2022-09-09T12:33:33;22.50;57.80
46139;DHT22;32398;49.112;8.598;2022-09-09T12:36:00;22.50;57.90
46139;DHT22;32398;49.112;8.598;2022-09-09T12:38:29;22.60;57.20
46139;DHT22;32398;49.112;8.598;2022-09-09T12:40:58;22.60;57.10
46139;DHT22;32398;49.112;8.598;2022-09-09T12:43:26;22.70;57.30
46139;DHT22;32398;49.112;8.598;2022-09-09T12:45:54;22.70;56.70
46139;DHT22;32398;49.112;8.598;2022-09-09T12:48:27;22.80;56.90
46139;DHT22;32398;49.112;8.598;2022-09-09T12:50:55;22.90;58.30
46139;DHT22;32398;49.112;8.598;2022-09-09T12:53:23;22.90;58.30
46139;DHT22;32398;49.112;8.598;2022-09-09T12:55:52;22.80;58.00
46139;DHT22;32398;49.112;8.598;2022-09-09T12:58:19;22.90;59.00
46139;DHT22;32398;49.112;8.598;2022-09-09T13:00:48;22.90;58.90
46139;DHT22;32398;49.112;8.598;2022-09-09T13:03:17;22.80;61.40
46139;DHT22;32398;49.112;8.598;2022-09-09T13:05:46;22.80;61.10
46139;DHT22;32398;49.112;8.598;2022-09-09T13:08:14;22.70;62.90
46139;DHT22;32398;49.112;8.598;2022-09-09T13:10:41;22.70;62.70
46139;DHT22;32398;49.112;8.598;2022-09-09T13:13:13;22.70;64.00
46139;DHT22;32398;49.112;8.598;2022-09-09T13:15:40;22.60;65.20
46139;DHT22;32398;49.112;8.598;2022-09-09T13:18:14;22.60;66.30
46139;DHT22;32398;49.112;8.598;2022-09-09T13:20:46;22.50;65.90
46139;DHT22;32398;49.112;8.598;2022-09-09T13:23:13;22.50;66.00
46139;DHT22;32398;49.112;8.598;2022-09-09T13:25:40;22.40;67.00
46139;DHT22;32398;49.112;8.598;2022-09-09T13:28:18;22.40;67.40
46139;DHT22;32398;49.112;8.598;2022-09-09T13:30:54;22.40;66.90
46139;DHT22;32398;49.112;8.598;2022-09-09T13:33:28;22.30;67.30
46139;DHT22;32398;49.112;8.598;2022-09-09T13:35:57;22.30;68.50
46139;DHT22;32398;49.112;8.598;2022-09-09T13:38:25;22.30;70.10
46139;DHT22;32398;49.112;8.598;2022-09-09T13:40:52;22.30;71.30
46139;DHT22;32398;49.112;8.598;2022-09-09T13:43:21;22.20;71.80
46139;DHT22;32398;49.112;8.598;2022-09-09T13:45:52;22.20;71.40
46139;DHT22;32398;49.112;8.598;2022-09-09T13:48:19;22.10;72.20
46139;DHT22;32398;49.112;8.598;2022-09-09T13:50:53;22.10;72.10
46139;DHT22;32398;49.112;8.598;2022-09-09T13:53:21;22.10;72.20
46139;DHT22;32398;49.112;8.598;2022-09-09T13:55:47;22.10;71.10
46139;DHT22;32398;49.112;8.598;2022-09-09T13:58:15;22.10;70.70
46139;DHT22;32398;49.112;8.598;2022-09-09T14:00:44;22.10;70.40
46139;DHT22;32398;49.112;8.598;2022-09-09T14:03:11;22.10;70.40
46139;DHT22;32398;49.112;8.598;2022-09-09T14:05:37;22.20;69.90
46139;DHT22;32398;49.112;8.598;2022-09-09T14:08:04;22.20;69.40
46139;DHT22;32398;49.112;8.598;2022-09-09T14:10:32;22.30;68.20
46139;DHT22;32398;49.112;8.598;2022-09-09T14:13:01;22.30;68.10
46139;DHT22;32398;49.112;8.598;2022-09-09T14:15:27;22.40;68.60
46139;DHT22;32398;49.112;8.598;2022-09-09T14:17:54;22.50;68.80
46139;DHT22;32398;49.112;8.598;2022-09-09T14:20:20;22.50;69.50
46139;DHT22;32398;49.112;8.598;2022-09-09T14:22:47;22.50;69.60
46139;DHT22;32398;49.112;8.598;2022-09-09T14:25:14;22.50;69.90
46139;DHT22;32398;49.112;8.598;2022-09-09T14:27:41;22.40;70.20
46139;DHT22;32398;49.112;8.598;2022-09-09T14:30:09;22.40;70.60
46139;DHT22;32398;49.112;8.598;2022-09-09T14:32:35;22.40;70.90
46139;DHT22;32398;49.112;8.598;2022-09-09T14:35:02;22.30;70.00
46139;DHT22;32398;49.112;8.598;2022-09-09T14:37:29;22.30;71.50
46139;DHT22;32398;49.112;8.598;2022-09-09T14:39:56;22.20;72.10
46139;DHT22;32398;49.112;8.598;2022-09-09T14:42:22;22.20;72.60
46139;DHT22;32398;49.112;8.598;2022-09-09T14:44:50;22.20;73.80
46139;DHT22;32398;49.112;8.598;2022-09-09T14:47:17;22.20;75.20
46139;DHT22;32398;49.112;8.598;2022-09-09T14:49:43;22.20;76.60
46139;DHT22;32398;49.112;8.598;2022-09-09T14:52:11;22.20;77.40
46139;DHT22;32398;49.112;8.598;2022-09-09T14:54:38;22.20;78.20
46139;DHT22;32398;49.112;8.598;2022-09-09T14:57:04;22.30;78.80
46139;DHT22;32398;49.112;8.598;2022-09-09T14:59:31;22.30;79.40
46139;DHT22;32398;49.112;8.598;2022-09-09T15:01:59;22.30;80.00
46139;DHT22;32398;49.112;8.598;2022-09-09T15:04:29;22.30;80.60
46139;DHT22;32398;49.112;8.598;2022-09-09T15:06:55;22.30;80.90
46139;DHT22;32398;49.112;8.598;2022-09-09T15:09:22;22.30;80.80
46139;DHT22;32398;49.112;8.598;2022-09-09T15:11:48;22.30;80.80
46139;DHT22;32398;49.112;8.598;2022-09-09T15:14:15;22.30;80.60
46139;DHT22;32398;49.112;8.598;2022-09-09T15:16:42;22.30;79.70
46139;DHT22;32398;49.112;8.598;2022-09-09T15:19:10;22.30;79.10
46139;DHT22;32398;49.112;8.598;2022-09-09T15:21:37;22.20;78.40
46139;DHT22;32398;49.112;8.598;2022-09-09T15:24:04;22.20;78.60
46139;DHT22;32398;49.112;8.598;2022-09-09T15:26:33;22.20;78.60
46139;DHT22;32398;49.112;8.598;2022-09-09T15:29:00;22.10;78.80
46139;DHT22;32398;49.112;8.598;2022-09-09T15:31:27;22.10;79.10
46139;DHT22;32398;49.112;8.598;2022-09-09T15:33:56;22.10;79.40
46139;DHT22;32398;49.112;8.598;2022-09-09T15:36:27;22.10;79.70
46139;DHT22;32398;49.112;8.598;2022-09-09T15:38:55;22.10;79.90
46139;DHT22;32398;49.112;8.598;2022-09-09T15:41:22;22.10;80.10
46139;DHT22;32398;49.112;8.598;2022-09-09T15:43:49;22.00;80.00
46139;DHT22;32398;49.112;8.598;2022-09-09T15:46:23;22.00;80.20